Time;durP1;ratioP1;P1;durP2;ratioP2;P2;SDS_P1;SDS_P2;PMS_P1;PMS_P2;Temp;Humidity;BMP_temperature;BMP_pressure;BME280_temperature;BME280_humidity;BME280_pressure;Samples;Min_cycle;Max_cycle;Signal;HPM_P1;HPM_P2
2022/07/13 00:01:04;;;;;;;;;;;20.10;99.90;;;;;;5088526;28;19931;-78
2022/07/13 00:03:33;;;;;;;;;;;20.10;99.90;;;;;;5087234;28;20040;-79
2022/07/13 00:06:00;;;;;;;;;;;19.30;99.90;;;;;;5084477;28;19924;-77
2022/07/13 00:08:27;;;;;;;;;;;20.10;99.90;;;;;;5089428;28;19928;-78
2022/07/13 00:10:54;;;;;;;;;;;20.10;99.90;;;;;;5078497;28;19924;-77
2022/07/13 00:13:21;;;;;;;;;;;20.10;99.90;;;;;;5084989;28;20352;-78
2022/07/13 00:15:48;;;;;;;;;;;20.10;99.90;;;;;;5081926;28;19924;-77
2022/07/13 00:18:15;;;;;;;;;;;20.10;99.90;;;;;;5087957;28;19936;-77
2022/07/13 00:20:43;;;;;;;;;;;20.20;99.90;;;;;;5081863;28;20031;-79
2022/07/13 00:23:10;;;;;;;;;;;20.20;99.90;;;;;;5080610;28;19923;-77
2022/07/13 00:25:37;;;;;;;;;;;20.20;99.90;;;;;;5080925;28;19927;-78
2022/07/13 00:28:04;;;;;;;;;;;20.20;99.90;;;;;;5071809;28;19928;-77
2022/07/13 00:30:31;;;;;;;;;;;20.10;99.90;;;;;;5091677;28;19985;-78
2022/07/13 00:32:58;;;;;;;;;;;20.10;99.90;;;;;;5072055;28;19966;-77
2022/07/13 00:35:25;;;;;;;;;;;20.10;99.90;;;;;;5078721;28;19931;-77
2022/07/13 00:37:54;;;;;;;;;;;21.60;99.90;;;;;;5083545;28;19931;-77
2022/07/13 00:40:22;;;;;;;;;;;20.00;99.90;;;;;;5083263;28;20367;-77
2022/07/13 00:42:49;;;;;;;;;;;19.90;99.90;;;;;;5079461;28;19920;-77
2022/07/13 00:45:17;;;;;;;;;;;19.90;99.90;;;;;;5079953;28;20395;-79
2022/07/13 00:47:44;;;;;;;;;;;19.90;99.90;;;;;;5084102;28;20011;-78
2022/07/13 00:50:11;;;;;;;;;;;19.90;99.90;;;;;;5074641;28;19924;-78
2022/07/13 00:52:38;;;;;;;;;;;19.90;99.90;;;;;;5080887;28;19958;-79
2022/07/13 00:55:09;;;;;;;;;;;19.90;99.90;;;;;;5078870;28;19927;-79
2022/07/13 00:57:36;;;;;;;;;;;19.90;99.90;;;;;;5076021;28;19919;-79
2022/07/13 01:00:05;;;;;;;;;;;20.00;99.90;;;;;;5076331;28;20350;-76
2022/07/13 01:02:32;;;;;;;;;;;20.00;99.90;;;;;;5088529;28;19931;-76
2022/07/13 01:05:00;;;;;;;;;;;20.00;99.90;;;;;;5090290;28;19924;-76
2022/07/13 01:07:27;;;;;;;;;;;20.00;99.90;;;;;;5089070;28;20038;-76
2022/07/13 01:09:54;;;;;;;;;;;20.00;99.90;;;;;;5081777;28;19955;-76
2022/07/13 01:12:22;;;;;;;;;;;19.90;99.90;;;;;;5089028;28;19924;-76
2022/07/13 01:14:50;;;;;;;;;;;19.90;99.90;;;;;;5088103;28;20414;-77
2022/07/13 01:17:16;;;;;;;;;;;19.90;99.90;;;;;;5088064;28;19977;-75
2022/07/13 01:19:44;;;;;;;;;;;19.80;99.90;;;;;;5088627;28;19947;-76
2022/07/13 01:22:12;;;;;;;;;;;19.70;99.90;;;;;;5089743;28;19931;-76
2022/07/13 01:24:40;;;;;;;;;;;19.70;99.90;;;;;;5088360;28;20753;-75
2022/07/13 01:27:07;;;;;;;;;;;19.70;99.90;;;;;;5083148;28;20019;-75
2022/07/13 01:29:34;;;;;;;;;;;21.60;99.90;;;;;;5090900;28;19924;-77
2022/07/13 01:32:01;;;;;;;;;;;19.60;99.90;;;;;;5089849;28;19931;-78
2022/07/13 01:34:28;;;;;;;;;;;19.60;99.90;;;;;;5090687;28;19926;-78
2022/07/13 01:36:55;;;;;;;;;;;19.50;99.90;;;;;;5090886;28;19991;-78
2022/07/13 01:39:24;;;;;;;;;;;19.50;99.90;;;;;;5090475;28;19931;-78
2022/07/13 01:41:53;;;;;;;;;;;19.50;99.90;;;;;;5090799;28;20332;-78
2022/07/13 01:44:20;;;;;;;;;;;19.50;99.90;;;;;;5090347;28;20397;-78
2022/07/13 01:46:49;;;;;;;;;;;19.50;99.90;;;;;;5072602;28;19946;-78
2022/07/13 01:49:18;;;;;;;;;;;19.50;99.90;;;;;;5073308;28;19928;-79
2022/07/13 01:51:46;;;;;;;;;;;19.60;99.90;;;;;;5081048;28;19931;-78
2022/07/13 01:54:14;;;;;;;;;;;19.60;99.90;;;;;;5091981;28;20675;-77
2022/07/13 01:56:42;;;;;;;;;;;19.60;99.90;;;;;;5080375;28;19923;-76
2022/07/13 01:59:11;;;;;;;;;;;19.60;99.90;;;;;;5091393;28;19920;-80
2022/07/13 02:01:37;;;;;;;;;;;19.60;99.90;;;;;;5085377;28;19931;-82
2022/07/13 02:04:05;;;;;;;;;;;19.60;99.90;;;;;;5092094;28;19928;-81
2022/07/13 02:06:32;;;;;;;;;;;19.60;99.90;;;;;;5072306;28;19974;-81
2022/07/13 02:08:59;;;;;;;;;;;19.60;99.90;;;;;;5083855;28;19924;-79
2022/07/13 02:11:25;;;;;;;;;;;19.70;99.90;;;;;;5080561;28;19928;-79
2022/07/13 02:13:52;;;;;;;;;;;19.70;99.90;;;;;;5087482;28;20033;-79
2022/07/13 02:16:21;;;;;;;;;;;19.70;99.90;;;;;;5101744;27;20356;-79
2022/07/13 02:18:48;;;;;;;;;;;19.70;99.90;;;;;;5083486;28;19924;-79
2022/07/13 02:21:15;;;;;;;;;;;19.70;99.90;;;;;;5078310;28;19928;-79
2022/07/13 02:23:42;;;;;;;;;;;19.70;99.90;;;;;;5083978;28;19931;-78
2022/07/13 02:26:09;;;;;;;;;;;19.80;99.90;;;;;;5077008;28;19924;-79
2022/07/13 02:28:39;;;;;;;;;;;19.70;99.90;;;;;;5081539;28;19969;-79
2022/07/13 02:31:06;;;;;;;;;;;19.70;99.90;;;;;;5082632;28;20022;-78
2022/07/13 02:33:34;;;;;;;;;;;19.70;99.90;;;;;;5084783;28;19927;-78
2022/07/13 02:36:01;;;;;;;;;;;19.70;99.90;;;;;;5086286;28;20413;-81
2022/07/13 02:38:28;;;;;;;;;;;19.70;99.90;;;;;;5075258;28;19924;-82
2022/07/13 02:40:55;;;;;;;;;;;19.70;99.90;;;;;;5075279;28;19935;-79
2022/07/13 02:43:24;;;;;;;;;;;19.60;99.90;;;;;;5076923;28;20019;-80
2022/07/13 02:45:51;;;;;;;;;;;19.60;99.90;;;;;;5087493;28;19928;-80
2022/07/13 02:48:20;;;;;;;;;;;19.60;99.90;;;;;;5079681;28;19946;-80
2022/07/13 02:50:49;;;;;;;;;;;19.60;99.90;;;;;;5093785;28;19944;-81
2022/07/13 02:53:16;;;;;;;;;;;19.60;99.90;;;;;;5093905;28;19956;-79
2022/07/13 02:55:43;;;;;;;;;;;19.60;99.90;;;;;;5088546;28;19946;-79
2022/07/13 02:58:11;;;;;;;;;;;19.60;99.90;;;;;;5090009;28;20414;-79
2022/07/13 03:00:38;;;;;;;;;;;19.60;99.90;;;;;;5089409;28;20372;-78
2022/07/13 03:03:05;;;;;;;;;;;19.60;99.90;;;;;;5088943;28;20007;-77
2022/07/13 03:05:35;;;;;;;;;;;19.60;99.90;;;;;;5090357;28;19977;-78
2022/07/13 03:08:03;;;;;;;;;;;19.70;99.90;;;;;;5090529;28;19924;-77
2022/07/13 03:10:31;;;;;;;;;;;19.70;99.90;;;;;;5081951;28;19924;-77
2022/07/13 03:13:00;;;;;;;;;;;19.70;99.90;;;;;;5078550;28;19955;-78
2022/07/13 03:15:27;;;;;;;;;;;19.70;99.90;;;;;;5089910;28;19936;-77
2022/07/13 03:17:55;;;;;;;;;;;19.70;99.90;;;;;;5081794;28;19977;-77
2022/07/13 03:20:22;;;;;;;;;;;19.70;99.90;;;;;;5079670;28;19920;-78
2022/07/13 03:22:51;;;;;;;;;;;19.70;99.90;;;;;;5085834;28;19926;-78
2022/07/13 03:25:19;;;;;;;;;;;19.70;99.90;;;;;;5091171;28;19920;-79
2022/07/13 03:27:48;;;;;;;;;;;19.60;99.90;;;;;;5086629;28;19927;-79
2022/07/13 03:30:15;;;;;;;;;;;19.60;99.90;;;;;;5083553;28;20538;-77
2022/07/13 03:32:42;;;;;;;;;;;19.70;99.90;;;;;;5082261;28;19924;-78
2022/07/13 03:35:10;;;;;;;;;;;19.70;99.90;;;;;;5084475;28;19928;-77
2022/07/13 03:37:38;;;;;;;;;;;19.70;99.90;;;;;;5080183;28;19949;-77
2022/07/13 03:40:09;;;;;;;;;;;19.70;99.90;;;;;;5092620;28;19939;-77
2022/07/13 03:42:39;;;;;;;;;;;19.70;99.90;;;;;;5089659;28;19928;-79
2022/07/13 03:45:07;;;;;;;;;;;19.70;99.90;;;;;;5083341;28;20084;-78
2022/07/13 03:47:34;;;;;;;;;;;19.70;99.90;;;;;;5086364;28;20445;-78
2022/07/13 03:50:02;;;;;;;;;;;19.70;99.90;;;;;;5089183;28;19955;-76
2022/07/13 03:52:28;;;;;;;;;;;19.70;99.90;;;;;;5081704;28;19920;-78
2022/07/13 03:54:56;;;;;;;;;;;19.70;99.90;;;;;;5081948;28;19944;-76
2022/07/13 03:57:23;;;;;;;;;;;19.80;99.90;;;;;;5080160;28;20485;-77
2022/07/13 03:59:52;;;;;;;;;;;19.80;99.90;;;;;;5089754;28;20360;-78
2022/07/13 04:02:20;;;;;;;;;;;19.80;99.90;;;;;;5082570;28;20091;-78
2022/07/13 04:04:48;;;;;;;;;;;19.80;99.90;;;;;;5079184;28;20035;-78
2022/07/13 04:07:15;;;;;;;;;;;19.90;99.90;;;;;;5073342;28;20015;-79
2022/07/13 04:09:42;;;;;;;;;;;19.90;99.90;;;;;;5079923;28;20434;-79
2022/07/13 04:12:10;;;;;;;;;;;19.90;99.90;;;;;;5088064;28;19924;-79
2022/07/13 04:14:38;;;;;;;;;;;20.00;99.90;;;;;;5087784;28;19932;-79
2022/07/13 04:17:06;;;;;;;;;;;20.00;99.90;;;;;;5088917;28;20018;-78
2022/07/13 04:19:33;;;;;;;;;;;20.20;99.90;;;;;;5079781;28;19994;-79
2022/07/13 04:22:00;;;;;;;;;;;20.20;99.90;;;;;;5083317;28;20062;-78
2022/07/13 04:24:30;;;;;;;;;;;20.30;99.90;;;;;;5089035;28;19924;-78
2022/07/13 04:26:57;;;;;;;;;;;20.40;99.90;;;;;;5086068;28;20263;-78
2022/07/13 04:29:24;;;;;;;;;;;20.60;99.90;;;;;;5074968;28;19924;-77
2022/07/13 04:31:51;;;;;;;;;;;20.60;99.90;;;;;;5083042;28;19973;-79
2022/07/13 04:34:20;;;;;;;;;;;20.70;99.90;;;;;;5081067;28;19928;-77
2022/07/13 04:36:48;;;;;;;;;;;20.80;99.90;;;;;;5086487;28;19920;-77
2022/07/13 04:39:15;;;;;;;;;;;20.80;99.90;;;;;;5078991;28;19924;-80
2022/07/13 04:41:44;;;;;;;;;;;20.90;99.90;;;;;;5085195;28;19931;-80
2022/07/13 04:44:12;;;;;;;;;;;21.00;99.90;;;;;;5081345;28;19997;-82
2022/07/13 04:46:40;;;;;;;;;;;21.10;99.90;;;;;;5076268;28;19921;-79
2022/07/13 04:49:07;;;;;;;;;;;21.10;99.90;;;;;;5096421;28;19920;-79
2022/07/13 04:51:37;;;;;;;;;;;21.10;99.90;;;;;;5081820;28;19995;-80
2022/07/13 04:54:07;;;;;;;;;;;21.20;99.90;;;;;;5091149;28;19923;-79
2022/07/13 04:56:35;;;;;;;;;;;21.20;99.90;;;;;;5092551;28;19965;-79
2022/07/13 04:59:02;;;;;;;;;;;21.30;99.90;;;;;;5075866;28;19931;-80
2022/07/13 05:01:29;;;;;;;;;;;21.30;99.90;;;;;;5101262;27;19967;-80
2022/07/13 05:04:01;;;;;;;;;;;21.30;99.90;;;;;;5094624;28;19920;-80
2022/07/13 05:06:28;;;;;;;;;;;21.40;99.90;;;;;;5085252;28;19927;-79
2022/07/13 05:08:57;;;;;;;;;;;21.40;99.90;;;;;;5086672;28;19920;-79
2022/07/13 05:11:24;;;;;;;;;;;21.50;99.90;;;;;;5076815;28;19924;-79
2022/07/13 05:13:52;;;;;;;;;;;21.50;99.90;;;;;;5072564;28;20316;-77
2022/07/13 05:16:19;;;;;;;;;;;21.60;99.90;;;;;;5089033;28;19985;-76
2022/07/13 05:18:46;;;;;;;;;;;21.70;99.90;;;;;;5088898;28;19930;-76
2022/07/13 05:21:17;;;;;;;;;;;21.90;99.90;;;;;;5088857;28;20236;-75
2022/07/13 05:23:45;;;;;;;;;;;22.10;99.90;;;;;;5083167;28;19924;-76
2022/07/13 05:26:15;;;;;;;;;;;22.20;99.90;;;;;;5079549;28;19926;-77
2022/07/13 05:28:42;;;;;;;;;;;22.40;99.90;;;;;;5090281;28;20101;-76
2022/07/13 05:31:12;;;;;;;;;;;22.50;99.90;;;;;;5086971;28;19935;-76
2022/07/13 05:33:40;;;;;;;;;;;22.60;99.90;;;;;;5085640;28;20504;-75
2022/07/13 05:36:07;;;;;;;;;;;22.70;99.90;;;;;;5070693;28;20392;-78
2022/07/13 05:38:34;;;;;;;;;;;22.90;99.90;;;;;;5069342;28;20379;-77
2022/07/13 05:41:02;;;;;;;;;;;23.10;99.90;;;;;;5070214;28;19968;-77
2022/07/13 05:43:31;;;;;;;;;;;23.30;99.90;;;;;;5085053;28;19931;-77
2022/07/13 05:45:58;;;;;;;;;;;23.60;99.90;;;;;;5090960;28;19955;-80
2022/07/13 05:48:24;;;;;;;;;;;24.00;99.90;;;;;;5091133;28;20017;-80
2022/07/13 05:50:54;;;;;;;;;;;24.70;99.90;;;;;;5092335;28;19920;-80
2022/07/13 05:53:24;;;;;;;;;;;26.10;99.90;;;;;;5081539;28;19920;-80
2022/07/13 05:55:52;;;;;;;;;;;28.30;99.90;;;;;;5082349;28;19927;-78
2022/07/13 05:58:20;;;;;;;;;;;29.30;99.90;;;;;;5073527;28;19924;-78
2022/07/13 06:00:49;;;;;;;;;;;29.10;99.90;;;;;;5080610;28;19927;-78
2022/07/13 06:03:16;;;;;;;;;;;28.70;99.90;;;;;;5093121;28;19928;-79
2022/07/13 06:05:43;;;;;;;;;;;28.40;99.90;;;;;;5087407;28;20386;-81
2022/07/13 06:08:14;;;;;;;;;;;28.00;99.90;;;;;;5082441;28;20406;-80
2022/07/13 06:10:41;;;;;;;;;;;27.90;99.90;;;;;;5089086;28;19939;-84
2022/07/13 06:13:08;;;;;;;;;;;27.90;99.90;;;;;;5091792;28;19924;-79
2022/07/13 06:15:36;;;;;;;;;;;28.20;99.90;;;;;;5093192;28;19920;-83
2022/07/13 06:18:05;;;;;;;;;;;28.50;99.90;;;;;;5120567;27;19942;-83
2022/07/13 06:20:32;;;;;;;;;;;28.30;99.90;;;;;;5084488;28;19921;-83
2022/07/13 06:23:11;;;;;;;;;;;28.00;99.90;;;;;;5086725;28;19924;-83
2022/07/13 06:25:38;;;;;;;;;;;27.80;99.90;;;;;;5090377;28;20362;-83
2022/07/13 06:28:05;;;;;;;;;;;27.50;99.90;;;;;;5093844;28;19932;-83
2022/07/13 06:30:32;;;;;;;;;;;27.30;99.90;;;;;;5094254;28;19924;-83
2022/07/13 06:32:59;;;;;;;;;;;27.20;99.90;;;;;;5078515;28;19934;-82
2022/07/13 06:35:29;;;;;;;;;;;27.10;99.90;;;;;;5084803;28;19924;-83
2022/07/13 06:37:56;;;;;;;;;;;27.00;99.90;;;;;;5085327;28;19928;-83
2022/07/13 06:40:23;;;;;;;;;;;27.00;99.90;;;;;;5085307;28;19945;-80
2022/07/13 06:42:50;;;;;;;;;;;27.00;99.90;;;;;;5074993;28;20111;-80
2022/07/13 06:45:17;;;;;;;;;;;26.80;99.90;;;;;;5077211;28;19969;-80
2022/07/13 06:47:44;;;;;;;;;;;26.70;99.90;;;;;;5078672;28;19920;-82
2022/07/13 06:50:11;;;;;;;;;;;26.60;99.90;;;;;;5078613;28;19928;-81
2022/07/13 06:52:40;;;;;;;;;;;26.60;99.90;;;;;;5079494;28;19968;-81
2022/07/13 06:55:08;;;;;;;;;;;26.70;99.90;;;;;;5074508;28;19935;-81
2022/07/13 06:57:35;;;;;;;;;;;26.80;99.90;;;;;;5081479;28;19973;-81
2022/07/13 07:00:02;;;;;;;;;;;27.40;99.90;;;;;;5093572;28;19978;-81
2022/07/13 07:02:29;;;;;;;;;;;27.60;99.90;;;;;;5077987;28;19923;-82
2022/07/13 07:04:56;;;;;;;;;;;28.20;99.90;;;;;;5081135;28;19986;-82
2022/07/13 07:07:26;;;;;;;;;;;28.60;99.90;;;;;;5082055;28;19924;-82
2022/07/13 07:09:54;;;;;;;;;;;29.10;99.90;;;;;;5084442;28;20010;-82
2022/07/13 07:12:22;;;;;;;;;;;28.90;99.90;;;;;;5080539;28;19920;-82
2022/07/13 07:14:49;;;;;;;;;;;28.80;99.90;;;;;;5073884;28;19924;-82
2022/07/13 07:17:17;;;;;;;;;;;28.70;99.90;;;;;;5096623;28;19982;-83
2022/07/13 07:19:45;;;;;;;;;;;28.90;99.90;;;;;;5084495;28;19935;-83
2022/07/13 07:22:12;;;;;;;;;;;29.10;99.90;;;;;;5083041;28;19951;-83
2022/07/13 07:24:40;;;;;;;;;;;30.10;99.90;;;;;;5074521;28;20542;-82
2022/07/13 07:27:10;;;;;;;;;;;31.10;99.90;;;;;;5086806;28;20049;-83
2022/07/13 07:29:37;;;;;;;;;;;31.80;99.80;;;;;;5076786;28;20466;-83
2022/07/13 07:32:05;;;;;;;;;;;31.90;98.00;;;;;;5115662;28;19920;-82
2022/07/13 07:34:32;;;;;;;;;;;31.90;96.60;;;;;;5082719;28;19940;-83
2022/07/13 07:36:59;;;;;;;;;;;31.80;95.60;;;;;;5088630;28;19924;-82
2022/07/13 07:39:26;;;;;;;;;;;31.20;95.40;;;;;;5103334;28;20003;-83
2022/07/13 07:41:54;;;;;;;;;;;31.20;95.40;;;;;;5085572;28;19927;-83
2022/07/13 07:44:22;;;;;;;;;;;30.90;95.20;;;;;;5081102;28;20363;-82
2022/07/13 07:46:52;;;;;;;;;;;30.70;95.20;;;;;;5076953;28;19991;-81
2022/07/13 07:49:21;;;;;;;;;;;30.40;95.10;;;;;;5069683;28;19947;-79
2022/07/13 07:51:48;;;;;;;;;;;30.30;95.10;;;;;;5084746;28;19983;-85
2022/07/13 07:54:15;;;;;;;;;;;30.40;95.20;;;;;;5087480;28;19931;-84
2022/07/13 07:56:42;;;;;;;;;;;30.70;95.40;;;;;;5073507;28;20116;-85
2022/07/13 07:59:09;;;;;;;;;;;31.10;95.30;;;;;;5083702;28;19928;-82
2022/07/13 08:01:37;;;;;;;;;;;31.30;94.60;;;;;;5087772;28;19924;-82
2022/07/13 08:04:04;;;;;;;;;;;31.50;94.70;;;;;;5088659;28;20007;-82
2022/07/13 08:06:31;;;;;;;;;;;31.60;93.80;;;;;;5092232;28;20276;-81
2022/07/13 08:09:00;;;;;;;;;;;31.70;93.10;;;;;;5094330;28;19928;-80
2022/07/13 08:11:30;;;;;;;;;;;31.80;92.80;;;;;;5094238;28;19942;-80
2022/07/13 08:13:59;;;;;;;;;;;31.80;92.50;;;;;;5099926;28;19934;-80
2022/07/13 08:16:28;;;;;;;;;;;31.90;92.30;;;;;;5089835;28;20022;-81
2022/07/13 08:18:56;;;;;;;;;;;31.80;91.90;;;;;;5087319;28;19920;-79
2022/07/13 08:21:23;;;;;;;;;;;31.70;92.00;;;;;;5089004;28;19920;-81
2022/07/13 08:23:54;;;;;;;;;;;31.60;91.80;;;;;;5095886;28;19924;-80
2022/07/13 08:26:22;;;;;;;;;;;31.70;91.40;;;;;;5080239;28;19995;-79
2022/07/13 08:28:49;;;;;;;;;;;31.60;91.20;;;;;;5094560;28;20383;-80
2022/07/13 08:31:22;;;;;;;;;;;31.50;91.10;;;;;;5092652;28;20275;-80
2022/07/13 08:39:26;;;;;;;;;;;30.80;87.00;;;;;;5086359;28;19938;-82
2022/07/13 08:42:03;;;;;;;;;;;30.80;86.50;;;;;;5084021;28;19920;-81
2022/07/13 08:44:32;;;;;;;;;;;30.90;85.80;;;;;;5081366;28;19943;-80
2022/07/13 08:46:59;;;;;;;;;;;31.10;84.60;;;;;;5084788;28;19928;-84
2022/07/13 08:49:27;;;;;;;;;;;31.20;82.60;;;;;;5071977;28;20298;-84
2022/07/13 08:51:56;;;;;;;;;;;31.20;83.10;;;;;;5081383;28;19920;-84
2022/07/13 08:54:25;;;;;;;;;;;31.60;82.60;;;;;;5072656;28;19974;-85
2022/07/13 08:56:52;;;;;;;;;;;32.10;81.90;;;;;;5076439;28;19924;-83
2022/07/13 08:59:19;;;;;;;;;;;32.50;82.70;;;;;;5078883;28;19924;-82
2022/07/13 09:01:46;;;;;;;;;;;32.80;80.00;;;;;;5092945;28;19931;-83
2022/07/13 09:04:13;;;;;;;;;;;32.90;79.10;;;;;;5094042;28;19982;-82
2022/07/13 09:06:44;;;;;;;;;;;33.10;79.00;;;;;;5091671;28;19936;-80
2022/07/13 09:09:26;;;;;;;;;;;33.10;78.40;;;;;;5096622;28;19924;-79
2022/07/13 09:12:15;;;;;;;;;;;33.10;76.60;;;;;;5076569;28;20602;-83
2022/07/13 09:14:42;;;;;;;;;;;33.00;77.40;;;;;;5092605;28;19920;-83
2022/07/13 09:17:09;;;;;;;;;;;32.90;76.70;;;;;;5079260;28;19928;-80
2022/07/13 09:19:42;;;;;;;;;;;33.00;77.40;;;;;;5084682;28;19927;-84
2022/07/13 09:22:10;;;;;;;;;;;33.10;77.40;;;;;;5095007;28;19920;-81
2022/07/13 09:24:45;;;;;;;;;;;33.20;77.00;;;;;;5094962;28;20355;-81
2022/07/13 09:27:12;;;;;;;;;;;33.20;75.60;;;;;;5082667;28;19942;-80
2022/07/13 09:29:42;;;;;;;;;;;33.00;75.80;;;;;;5092414;28;19934;-81
2022/07/13 09:32:11;;;;;;;;;;;33.00;76.20;;;;;;5089143;28;20687;-81
2022/07/13 09:34:46;;;;;;;;;;;33.00;77.00;;;;;;5093021;28;19932;-80
2022/07/13 09:37:14;;;;;;;;;;;33.20;76.30;;;;;;5091237;28;19969;-80
2022/07/13 09:42:36;;;;;;;;;;;33.30;76.20;;;;;;5079074;27;19946;-76
2022/07/13 09:47:49;;;;;;;;;;;33.30;75.70;;;;;;5076838;28;20430;-77
2022/07/13 09:50:18;;;;;;;;;;;33.10;74.50;;;;;;5078835;28;19929;-76
2022/07/13 09:52:45;;;;;;;;;;;32.90;75.20;;;;;;5074723;28;20340;-77
2022/07/13 09:55:13;;;;;;;;;;;32.80;75.80;;;;;;5077950;28;19928;-76
2022/07/13 09:57:44;;;;;;;;;;;32.90;75.70;;;;;;5079628;28;19928;-76
2022/07/13 10:00:13;;;;;;;;;;;32.90;75.60;;;;;;5074572;28;20018;-76
2022/07/13 10:02:41;;;;;;;;;;;32.80;75.30;;;;;;5081792;28;19996;-76
2022/07/13 10:05:09;;;;;;;;;;;32.70;75.90;;;;;;5083082;28;19936;-76
2022/07/13 10:07:37;;;;;;;;;;;32.40;76.00;;;;;;5083819;28;19928;-76
2022/07/13 10:10:05;;;;;;;;;;;32.30;76.70;;;;;;5085417;28;19928;-77
2022/07/13 10:12:34;;;;;;;;;;;32.30;76.70;;;;;;5071814;28;20317;-77
2022/07/13 10:15:04;;;;;;;;;;;32.30;76.90;;;;;;5075237;28;19932;-77
2022/07/13 10:17:32;;;;;;;;;;;32.30;77.30;;;;;;5082677;28;19963;-76
2022/07/13 10:20:02;;;;;;;;;;;32.30;77.70;;;;;;5075416;28;19944;-78
2022/07/13 10:22:31;;;;;;;;;;;32.30;76.80;;;;;;5072416;28;19932;-76
2022/07/13 10:25:00;;;;;;;;;;;32.20;77.20;;;;;;5071222;28;19978;-77
2022/07/13 10:27:27;;;;;;;;;;;32.30;77.10;;;;;;5079909;28;20344;-76
2022/07/13 10:29:55;;;;;;;;;;;32.30;76.80;;;;;;5085362;28;19929;-78
2022/07/13 10:32:26;;;;;;;;;;;32.40;77.30;;;;;;5081740;28;19932;-76
2022/07/13 10:34:54;;;;;;;;;;;32.20;76.70;;;;;;5071142;28;19978;-76
2022/07/13 10:37:22;;;;;;;;;;;32.00;76.80;;;;;;5075733;28;20390;-76
2022/07/13 10:40:06;;;;;;;;;;;31.70;76.70;;;;;;5069812;28;19936;-77
2022/07/13 10:43:07;;;;;;;;;;;31.40;77.90;;;;;;5063528;28;19999;-77
2022/07/13 10:45:38;;;;;;;;;;;31.20;79.20;;;;;;5073988;28;20317;-76
2022/07/13 10:48:07;;;;;;;;;;;31.00;79.50;;;;;;5077187;28;19932;-77
2022/07/13 10:50:39;;;;;;;;;;;31.00;80.10;;;;;;5080594;28;19940;-76
2022/07/13 10:53:08;;;;;;;;;;;31.00;79.60;;;;;;5079783;28;19967;-75
2022/07/13 10:55:35;;;;;;;;;;;30.90;79.80;;;;;;5072324;28;19937;-75
2022/07/13 10:58:17;;;;;;;;;;;30.70;80.50;;;;;;5069355;28;19975;-75
2022/07/13 11:00:44;;;;;;;;;;;30.70;80.50;;;;;;5067187;28;19938;-75
2022/07/13 11:03:28;;;;;;;;;;;30.60;80.60;;;;;;5061664;28;20365;-75
2022/07/13 11:06:04;;;;;;;;;;;30.50;81.10;;;;;;5066525;28;19925;-75
2022/07/13 11:08:31;;;;;;;;;;;30.40;81.50;;;;;;5066369;28;19924;-75
2022/07/13 11:11:09;;;;;;;;;;;30.50;82.10;;;;;;5066299;28;20313;-75
2022/07/13 11:13:36;;;;;;;;;;;30.50;82.80;;;;;;5064462;28;19935;-75
2022/07/13 11:16:02;;;;;;;;;;;30.80;82.70;;;;;;5061983;28;19928;-76
2022/07/13 11:18:31;;;;;;;;;;;31.10;81.70;;;;;;5063838;28;19941;-75
2022/07/13 11:20:59;;;;;;;;;;;31.30;80.90;;;;;;5058432;28;19943;-75
2022/07/13 11:26:14;;;;;;;;;;;31.40;81.20;;;;;;5060864;28;19936;-76
2022/07/13 11:28:46;;;;;;;;;;;31.40;81.40;;;;;;5069397;28;19959;-76
2022/07/13 11:31:14;;;;;;;;;;;31.50;81.00;;;;;;5068362;28;20607;-75
2022/07/13 11:33:50;;;;;;;;;;;31.50;81.50;;;;;;5065844;28;19931;-75
2022/07/13 11:36:19;;;;;;;;;;;31.60;81.10;;;;;;5065411;28;19940;-76
2022/07/13 11:38:46;;;;;;;;;;;31.90;81.30;;;;;;5064722;28;19935;-76
2022/07/13 11:41:18;;;;;;;;;;;32.40;80.30;;;;;;5061480;28;19959;-76
2022/07/13 11:43:48;;;;;;;;;;;32.40;80.40;;;;;;5069851;28;19924;-75
2022/07/13 11:46:15;;;;;;;;;;;32.70;80.90;;;;;;5061600;28;19924;-75
2022/07/13 11:48:41;;;;;;;;;;;32.90;78.80;;;;;;5068045;28;19935;-75
2022/07/13 11:51:10;;;;;;;;;;;33.00;78.90;;;;;;5069175;22;19991;-75
2022/07/13 11:53:36;;;;;;;;;;;33.10;78.80;;;;;;5050694;28;20012;-74
2022/07/13 11:56:07;;;;;;;;;;;33.10;77.20;;;;;;5048920;28;19928;-73
2022/07/13 11:58:34;;;;;;;;;;;33.00;78.00;;;;;;5041901;28;20256;-74
2022/07/13 12:01:02;;;;;;;;;;;33.00;78.10;;;;;;5043159;28;19925;-76
2022/07/13 12:03:30;;;;;;;;;;;32.90;77.90;;;;;;5047955;28;20011;-73
2022/07/13 12:06:00;;;;;;;;;;;32.80;78.00;;;;;;5051063;28;19933;-76
2022/07/13 12:08:30;;;;;;;;;;;32.70;78.20;;;;;;5046354;28;20011;-78
2022/07/13 12:10:57;;;;;;;;;;;32.70;78.80;;;;;;5040820;28;20463;-78
2022/07/13 12:13:24;;;;;;;;;;;32.80;79.70;;;;;;5042517;28;19975;-78
2022/07/13 12:15:51;;;;;;;;;;;32.80;78.60;;;;;;5034770;28;20337;-78
2022/07/13 12:18:18;;;;;;;;;;;32.70;79.00;;;;;;5033516;28;19936;-77
2022/07/13 12:20:44;;;;;;;;;;;32.70;79.00;;;;;;5033077;28;19932;-77
2022/07/13 12:23:12;;;;;;;;;;;32.70;79.40;;;;;;5033128;28;19929;-76
2022/07/13 12:25:40;;;;;;;;;;;32.60;79.80;;;;;;5029558;28;19933;-77
2022/07/13 12:28:08;;;;;;;;;;;32.50;80.00;;;;;;5040099;28;19935;-77
2022/07/13 12:30:38;;;;;;;;;;;32.20;79.20;;;;;;5038860;28;20413;-78
2022/07/13 12:33:06;;;;;;;;;;;32.20;80.70;;;;;;5044724;28;19925;-78
2022/07/13 12:35:35;;;;;;;;;;;32.10;81.80;;;;;;5053145;28;20030;-80
2022/07/13 12:38:03;;;;;;;;;;;32.10;83.60;;;;;;5044914;28;19936;-80
2022/07/13 12:40:37;;;;;;;;;;;31.60;81.80;;;;;;5046901;28;20235;-78
2022/07/13 12:43:05;;;;;;;;;;;32.10;83.50;;;;;;5047530;28;19981;-78
2022/07/13 12:45:32;;;;;;;;;;;32.10;83.90;;;;;;5047155;28;19939;-80
2022/07/13 12:47:59;;;;;;;;;;;31.30;83.00;;;;;;5047464;28;19929;-79
2022/07/13 12:50:26;;;;;;;;;;;32.40;82.70;;;;;;5045935;28;19936;-79
2022/07/13 12:52:59;;;;;;;;;;;34.20;84.50;;;;;;5045814;28;19928;-78
2022/07/13 12:55:26;;;;;;;;;;;32.50;83.00;;;;;;5050247;28;19956;-78
2022/07/13 12:57:53;;;;;;;;;;;32.80;81.60;;;;;;5042459;28;20297;-80
2022/07/13 13:00:24;;;;;;;;;;;32.70;80.30;;;;;;5048616;28;19928;-80
2022/07/13 13:02:51;;;;;;;;;;;32.80;81.20;;;;;;5045237;28;19928;-78
2022/07/13 13:05:18;;;;;;;;;;;32.90;81.90;;;;;;5055953;28;19924;-78
2022/07/13 13:07:46;;;;;;;;;;;33.10;81.00;;;;;;5047341;28;20346;-79
2022/07/13 13:10:12;;;;;;;;;;;33.00;79.10;;;;;;5042797;28;19929;-80
2022/07/13 13:12:39;;;;;;;;;;;32.90;79.20;;;;;;5054341;28;19932;-78
2022/07/13 13:15:06;;;;;;;;;;;32.80;79.00;;;;;;5048821;28;19925;-79
2022/07/13 13:17:34;;;;;;;;;;;32.80;79.70;;;;;;5055778;28;19940;-78
2022/07/13 13:20:01;;;;;;;;;;;32.90;76.80;;;;;;5047844;28;19932;-78
2022/07/13 13:22:28;;;;;;;;;;;33.00;77.30;;;;;;5045122;28;20390;-79
2022/07/13 13:24:54;;;;;;;;;;;32.90;77.50;;;;;;5046985;28;19938;-80
2022/07/13 13:27:21;;;;;;;;;;;32.80;76.70;;;;;;5052084;28;19982;-78
2022/07/13 13:32:32;;;;;;;;;;;32.50;76.30;;;;;;5050132;28;19924;-78
2022/07/13 13:35:01;;;;;;;;;;;32.30;75.80;;;;;;5046856;28;19936;-80
2022/07/13 13:37:27;;;;;;;;;;;32.20;75.90;;;;;;5053688;28;20282;-78
2022/07/13 13:39:54;;;;;;;;;;;33.10;74.80;;;;;;5048719;28;20346;-80
2022/07/13 13:42:21;;;;;;;;;;;32.10;74.60;;;;;;5045409;28;20391;-77
2022/07/13 13:44:48;;;;;;;;;;;32.20;74.60;;;;;;5046309;28;19929;-77
2022/07/13 13:47:22;;;;;;;;;;;32.10;73.60;;;;;;5053026;28;19947;-75
2022/07/13 13:49:49;;;;;;;;;;;32.00;74.00;;;;;;5066363;28;19977;-76
2022/07/13 13:52:17;;;;;;;;;;;31.90;73.90;;;;;;5062497;28;19973;-76
2022/07/13 13:54:44;;;;;;;;;;;31.90;74.20;;;;;;5064550;28;20194;-75
2022/07/13 13:57:11;;;;;;;;;;;31.80;74.60;;;;;;5070779;28;20000;-75
2022/07/13 13:59:38;;;;;;;;;;;31.80;75.10;;;;;;5065183;28;19999;-75
2022/07/13 14:02:04;;;;;;;;;;;31.80;73.90;;;;;;5054794;28;19940;-75
2022/07/13 14:04:33;;;;;;;;;;;31.90;73.70;;;;;;5052793;28;19979;-75
2022/07/13 14:07:00;;;;;;;;;;;31.90;72.00;;;;;;5052080;28;19982;-75
2022/07/13 14:09:28;;;;;;;;;;;32.10;72.80;;;;;;5053590;28;19936;-74
2022/07/13 14:11:54;;;;;;;;;;;32.10;70.50;;;;;;5051203;28;19933;-75
2022/07/13 14:14:21;;;;;;;;;;;32.10;70.50;;;;;;5045449;28;20042;-77
2022/07/13 14:16:48;;;;;;;;;;;31.90;71.30;;;;;;5048600;28;19929;-77
2022/07/13 14:19:15;;;;;;;;;;;31.70;71.70;;;;;;5042287;28;19929;-80
2022/07/13 14:21:41;;;;;;;;;;;31.60;71.40;;;;;;5049449;28;19932;-77
2022/07/13 14:24:08;;;;;;;;;;;31.60;71.90;;;;;;5046537;28;19952;-79
2022/07/13 14:26:36;;;;;;;;;;;31.60;71.70;;;;;;5046714;28;19924;-80
2022/07/13 14:29:03;;;;;;;;;;;31.50;71.90;;;;;;5053689;28;20393;-81
2022/07/13 14:31:30;;;;;;;;;;;31.40;72.30;;;;;;5055559;28;19925;-77
2022/07/13 14:33:57;;;;;;;;;;;31.50;73.20;;;;;;5052636;28;19932;-81
2022/07/13 14:36:25;;;;;;;;;;;31.60;73.30;;;;;;5050327;28;19932;-78
2022/07/13 14:38:53;;;;;;;;;;;31.70;73.20;;;;;;5053137;28;20347;-79